createdAt,value
2019-05-01T00:02:02.907Z,86.10
2019-05-01T00:04:47.262Z,87.60
2019-05-01T00:07:21.440Z,87.40
2019-05-01T00:09:48.756Z,86.70
2019-05-01T00:12:16.252Z,87.00
2019-05-01T00:14:43.949Z,87.20
2019-05-01T00:17:11.320Z,87.20
2019-05-01T00:19:38.575Z,86.50
2019-05-01T00:22:05.812Z,86.40
2019-05-01T00:24:33.107Z,87.60
2019-05-01T00:27:00.439Z,88.70
2019-05-01T00:29:27.743Z,89.70
2019-05-01T00:31:54.965Z,89.40
2019-05-01T00:34:22.275Z,89.50
2019-05-01T00:36:49.547Z,90.30
2019-05-01T00:39:18.292Z,90.10
2019-05-01T00:41:45.564Z,90.10
2019-05-01T00:44:12.798Z,90.10
2019-05-01T00:49:07.281Z,89.00
2019-05-01T00:51:34.551Z,90.10
2019-05-01T00:54:01.840Z,89.90
2019-05-01T00:56:43.328Z,89.70
2019-05-01T00:59:30.126Z,89.30
2019-05-01T01:02:19.902Z,88.90
2019-05-01T01:04:47.131Z,89.10
2019-05-01T01:07:14.515Z,89.50
2019-05-01T01:09:41.750Z,89.50
2019-05-01T01:12:08.993Z,90.00
2019-05-01T01:14:36.416Z,90.10
2019-05-01T01:17:03.640Z,90.20
2019-05-01T01:19:30.958Z,90.00
2019-05-01T01:21:58.291Z,89.70
2019-05-01T01:24:25.648Z,90.00
2019-05-01T01:26:53.187Z,90.10
2019-05-01T01:29:20.619Z,90.20
2019-05-01T01:31:47.868Z,90.10
2019-05-01T01:34:15.113Z,90.60
2019-05-01T01:36:42.370Z,91.00
2019-05-01T01:39:09.633Z,90.30
2019-05-01T01:41:36.940Z,89.70
2019-05-01T01:44:36.943Z,89.30
2019-05-01T01:47:04.313Z,88.70
2019-05-01T01:49:31.924Z,89.20
2019-05-01T01:51:59.633Z,89.30
2019-05-01T01:54:27.380Z,89.60
2019-05-01T01:56:55.145Z,90.20
2019-05-01T01:59:23.381Z,90.70
2019-05-01T02:02:13.098Z,90.80
2019-05-01T02:05:05.879Z,90.90
2019-05-01T02:07:33.559Z,90.60
2019-05-01T02:10:01.003Z,90.40
2019-05-01T02:12:28.496Z,90.10
2019-05-01T02:14:55.739Z,89.50
2019-05-01T02:17:23.088Z,89.50
2019-05-01T02:19:50.341Z,89.80
2019-05-01T02:22:18.738Z,89.90
2019-05-01T02:24:45.983Z,89.70
2019-05-01T02:27:18.681Z,90.40
2019-05-01T02:29:50.611Z,90.80
2019-05-01T02:32:20.560Z,90.80
2019-05-01T02:34:48.950Z,90.50
2019-05-01T02:37:16.977Z,90.20
2019-05-01T02:39:46.318Z,90.20
2019-05-01T02:42:14.340Z,90.60
2019-05-01T02:44:48.411Z,90.60
2019-05-01T02:47:22.389Z,90.80
2019-05-01T02:49:57.242Z,91.20
2019-05-01T02:52:28.526Z,92.00
2019-05-01T02:54:59.588Z,92.10
2019-05-01T02:57:26.450Z,92.00
2019-05-01T02:59:55.875Z,91.90
2019-05-01T03:02:25.997Z,92.10
2019-05-01T03:04:54.833Z,91.60
2019-05-01T03:07:24.803Z,91.60
2019-05-01T03:09:52.245Z,91.80
2019-05-01T03:12:22.609Z,91.60
2019-05-01T03:14:52.684Z,92.30
2019-05-01T03:17:37.982Z,92.10
2019-05-01T03:20:33.921Z,91.60
2019-05-01T03:23:17.954Z,91.90
2019-05-01T03:25:46.096Z,91.60
2019-05-01T03:28:13.669Z,91.50
2019-05-01T03:30:41.137Z,91.20
2019-05-01T03:33:08.435Z,91.40
2019-05-01T03:35:35.891Z,91.80
2019-05-01T03:38:03.306Z,91.90
2019-05-01T03:40:31.348Z,91.80
2019-05-01T03:42:59.940Z,92.00
2019-05-01T03:45:27.680Z,92.20
2019-05-01T03:47:55.486Z,91.90
2019-05-01T03:50:23.128Z,91.60
2019-05-01T03:52:50.589Z,91.80
2019-05-01T03:55:18.259Z,91.90
2019-05-01T03:57:45.919Z,91.20
2019-05-01T04:00:17.588Z,91.60
2019-05-01T04:02:51.101Z,91.70
2019-05-01T04:05:18.360Z,91.60
2019-05-01T04:07:46.305Z,91.50
2019-05-01T04:10:13.581Z,91.10
2019-05-01T04:12:41.318Z,91.70
2019-05-01T04:15:08.786Z,91.00
2019-05-01T04:17:44.525Z,91.90
2019-05-01T04:20:11.867Z,92.60
2019-05-01T04:22:39.263Z,93.00
2019-05-01T04:25:07.496Z,92.60
2019-05-01T04:27:37.220Z,92.40
2019-05-01T04:30:26.987Z,92.90
2019-05-01T04:32:57.280Z,92.60
2019-05-01T04:35:48.421Z,92.60
2019-05-01T04:38:16.139Z,92.90
2019-05-01T04:40:43.665Z,92.80
2019-05-01T04:43:11.013Z,92.80
2019-05-01T04:45:39.161Z,92.70
2019-05-01T04:48:06.989Z,92.70
2019-05-01T04:50:34.541Z,92.50
2019-05-01T04:53:01.808Z,93.00
2019-05-01T04:55:30.551Z,93.30
2019-05-01T04:57:57.777Z,93.30
2019-05-01T05:00:25.022Z,93.40
2019-05-01T05:03:05.102Z,93.20
2019-05-01T05:05:30.523Z,93.00
2019-05-01T05:07:57.803Z,93.00
2019-05-01T05:10:25.801Z,92.50
2019-05-01T05:13:08.375Z,92.20
2019-05-01T05:15:50.957Z,91.30
2019-05-01T05:18:18.546Z,90.40
2019-05-01T05:20:45.833Z,90.20
2019-05-01T05:23:13.307Z,90.10
2019-05-01T05:25:40.902Z,89.70
2019-05-01T05:28:09.015Z,88.60
2019-05-01T05:30:36.556Z,86.10
2019-05-01T05:33:17.676Z,85.50
2019-05-01T05:35:39.057Z,85.60
2019-05-01T05:38:15.608Z,83.20
2019-05-01T05:40:43.958Z,82.90
2019-05-01T05:43:11.422Z,83.20
2019-05-01T05:45:39.211Z,80.30
2019-05-01T05:48:06.743Z,79.40
2019-05-01T05:50:43.692Z,78.50
2019-05-01T05:53:15.392Z,78.10
2019-05-01T05:55:48.167Z,78.80
2019-05-01T05:58:24.712Z,77.60
2019-05-01T06:01:21.284Z,77.20
2019-05-01T06:04:11.506Z,78.30
2019-05-01T06:06:47.368Z,76.60
2019-05-01T06:09:16.620Z,74.80
2019-05-01T06:12:05.027Z,74.10
2019-05-01T06:14:50.989Z,74.30
2019-05-01T06:17:36.403Z,76.20
2019-05-01T06:20:12.445Z,76.20
2019-05-01T06:22:58.892Z,77.40
2019-05-01T06:25:30.405Z,75.00
2019-05-01T06:27:57.773Z,79.00
2019-05-01T06:30:24.996Z,76.80
2019-05-01T06:32:52.707Z,76.30
2019-05-01T06:35:20.119Z,77.10
2019-05-01T06:38:11.429Z,75.50
2019-05-01T06:40:43.416Z,76.30
2019-05-01T06:43:43.685Z,74.80
2019-05-01T06:46:36.318Z,75.10
2019-05-01T06:49:15.291Z,72.70
2019-05-01T06:51:53.230Z,72.70
2019-05-01T06:54:18.334Z,70.80
2019-05-01T06:56:46.745Z,70.50
2019-05-01T06:59:15.240Z,70.60
2019-05-01T07:01:43.194Z,69.00
2019-05-01T07:04:10.563Z,71.30
2019-05-01T07:06:38.065Z,69.20
2019-05-01T07:09:06.906Z,69.10
2019-05-01T07:11:36.369Z,69.10
2019-05-01T07:14:03.767Z,65.10
2019-05-01T07:16:33.125Z,65.40
2019-05-01T07:19:05.748Z,64.60
2019-05-01T07:21:32.775Z,66.50
2019-05-01T07:24:00.227Z,65.60
2019-05-01T07:26:27.442Z,62.20
2019-05-01T07:28:57.541Z,61.30
2019-05-01T07:31:26.119Z,61.10
2019-05-01T07:33:54.113Z,59.30
2019-05-01T07:36:21.473Z,58.10
2019-05-01T07:38:49.065Z,56.30
2019-05-01T07:41:16.350Z,56.20
2019-05-01T07:44:02.347Z,55.20
2019-05-01T07:46:38.511Z,57.00
2019-05-01T07:49:06.259Z,55.90
2019-05-01T07:51:37.717Z,55.80
2019-05-01T07:54:03.994Z,55.30
2019-05-01T07:56:32.871Z,54.30
2019-05-01T07:59:00.346Z,52.40
2019-05-01T08:01:54.479Z,52.40
2019-05-01T08:06:52.013Z,52.10
2019-05-01T08:09:17.693Z,53.20
2019-05-01T08:11:45.527Z,51.90
2019-05-01T08:14:16.688Z,52.80
2019-05-01T08:16:43.610Z,50.20
2019-05-01T08:19:27.962Z,50.00
2019-05-01T08:22:12.724Z,48.90
2019-05-01T08:24:40.002Z,49.10
2019-05-01T08:27:15.592Z,49.20
2019-05-01T08:30:17.372Z,49.80
2019-05-01T08:32:54.137Z,49.10
2019-05-01T08:35:22.743Z,49.70
2019-05-01T08:37:53.859Z,47.20
2019-05-01T08:42:48.839Z,46.60
2019-05-01T08:45:40.741Z,48.10
2019-05-01T08:48:35.772Z,47.80
2019-05-01T08:51:01.558Z,47.70
2019-05-01T08:53:29.019Z,47.60
2019-05-01T08:55:56.379Z,46.50
2019-05-01T08:58:23.673Z,45.50
2019-05-01T09:00:50.941Z,46.90
2019-05-01T09:03:19.016Z,45.70
2019-05-01T09:08:14.650Z,44.40
2019-05-01T09:10:41.917Z,46.20
2019-05-01T09:13:09.189Z,46.40
2019-05-01T09:15:36.598Z,43.90
2019-05-01T09:18:04.132Z,47.20
2019-05-01T09:20:32.654Z,45.10
2019-05-01T09:22:59.971Z,50.00
2019-05-01T09:28:20.513Z,43.80
2019-05-01T09:30:53.095Z,45.10
2019-05-01T09:33:20.460Z,45.40
2019-05-01T09:38:15.080Z,42.60
2019-05-01T09:40:42.357Z,42.40
2019-05-01T09:43:09.614Z,42.40
2019-05-01T09:45:36.881Z,39.80
2019-05-01T09:48:04.723Z,40.00
2019-05-01T09:50:33.962Z,41.80
2019-05-01T09:53:11.499Z,40.30
2019-05-01T09:55:46.572Z,39.50
2019-05-01T09:58:14.043Z,41.60
2019-05-01T10:00:41.449Z,39.40
2019-05-01T10:03:08.508Z,38.10
2019-05-01T10:05:38.085Z,38.50
2019-05-01T10:10:32.927Z,38.20
2019-05-01T10:13:00.293Z,40.00
2019-05-01T10:15:27.537Z,39.00
2019-05-01T10:17:54.802Z,36.20
2019-05-01T10:20:22.094Z,37.90
2019-05-01T10:22:49.358Z,36.70
2019-05-01T10:25:16.506Z,37.50
2019-05-01T10:27:48.956Z,38.00
2019-05-01T10:30:36.219Z,36.60
2019-05-01T10:33:06.053Z,36.40
2019-05-01T10:35:58.190Z,35.20
2019-05-01T10:38:25.569Z,34.20
2019-05-01T10:40:52.843Z,33.30
2019-05-01T10:43:20.146Z,32.00
2019-05-01T10:45:47.504Z,34.80
2019-05-01T10:48:14.754Z,30.50
2019-05-01T10:53:09.298Z,31.90
2019-05-01T10:55:36.620Z,29.10
2019-05-01T10:58:04.076Z,27.60
2019-05-01T11:00:31.412Z,26.60
2019-05-01T11:02:58.708Z,27.30
2019-05-01T11:05:25.976Z,28.50
2019-05-01T11:07:53.251Z,29.00
2019-05-01T11:10:20.560Z,29.80
2019-05-01T11:12:47.804Z,30.00
2019-05-01T11:15:15.223Z,29.40
2019-05-01T11:17:42.475Z,29.60
2019-05-01T11:20:09.820Z,31.10
2019-05-01T11:22:37.142Z,29.00
2019-05-01T11:25:05.170Z,29.30
2019-05-01T11:27:32.428Z,28.50
2019-05-01T11:29:59.760Z,29.10
2019-05-01T11:32:46.606Z,30.10
2019-05-01T11:35:36.319Z,29.50
2019-05-01T11:38:28.787Z,29.40
2019-05-01T11:41:00.503Z,30.00
2019-05-01T11:43:27.744Z,30.10
2019-05-01T11:45:55.029Z,28.60
2019-05-01T11:48:25.011Z,30.50
2019-05-01T11:50:51.484Z,29.30
2019-05-01T11:53:18.742Z,30.50
2019-05-01T11:55:45.877Z,29.40
2019-05-01T11:58:13.127Z,31.40
2019-05-01T12:00:40.466Z,30.70
2019-05-01T12:03:07.852Z,29.50
2019-05-01T12:05:35.000Z,29.00
2019-05-01T12:08:02.181Z,30.10
2019-05-01T12:10:29.350Z,30.10
2019-05-01T12:12:57.174Z,31.20
2019-05-01T12:15:24.555Z,32.10
2019-05-01T12:17:51.819Z,31.90
2019-05-01T12:20:20.955Z,31.50
2019-05-01T12:22:51.201Z,31.50
2019-05-01T12:25:17.624Z,31.60
2019-05-01T12:27:44.909Z,31.80
2019-05-01T12:30:14.106Z,30.30
2019-05-01T12:32:41.480Z,30.40
2019-05-01T12:35:09.048Z,31.40
2019-05-01T12:37:41.675Z,30.30
2019-05-01T12:40:10.833Z,31.00
2019-05-01T12:42:38.220Z,31.80
2019-05-01T12:45:06.465Z,31.90
2019-05-01T12:47:39.098Z,32.90
2019-05-01T12:50:07.284Z,31.10
2019-05-01T12:52:52.995Z,30.90
2019-05-01T12:55:28.959Z,28.60
2019-05-01T12:57:56.523Z,28.20
2019-05-01T13:00:38.646Z,30.00
2019-05-01T13:03:05.987Z,30.20
2019-05-01T13:05:33.404Z,28.90
2019-05-01T13:08:00.983Z,29.40
2019-05-01T13:10:28.335Z,30.70
2019-05-01T13:12:55.585Z,29.10
2019-05-01T13:15:22.960Z,29.90
2019-05-01T13:17:50.303Z,28.80
2019-05-01T13:20:17.601Z,28.80
2019-05-01T13:22:44.836Z,29.10
2019-05-01T13:25:12.544Z,28.60
2019-05-01T13:27:51.984Z,28.20
2019-05-01T13:30:31.612Z,28.40
2019-05-01T13:32:58.948Z,30.00
2019-05-01T13:35:26.198Z,29.80
2019-05-01T13:37:53.471Z,30.00
2019-05-01T13:40:20.920Z,28.90
2019-05-01T13:42:48.432Z,30.00
2019-05-01T13:45:17.356Z,29.20
2019-05-01T13:47:44.668Z,29.20
2019-05-01T13:50:12.572Z,30.60
2019-05-01T13:52:39.812Z,30.20
2019-05-01T13:55:07.914Z,29.20
2019-05-01T13:57:35.004Z,31.70
2019-05-01T14:00:02.516Z,30.50
2019-05-01T14:02:29.797Z,30.60
2019-05-01T14:04:57.397Z,31.10
2019-05-01T14:07:24.835Z,29.40
2019-05-01T14:09:52.243Z,29.80
2019-05-01T14:12:19.523Z,29.40
2019-05-01T14:14:46.834Z,29.20
2019-05-01T14:17:14.140Z,30.20
2019-05-01T14:19:44.100Z,29.80
2019-05-01T14:22:24.511Z,29.20
2019-05-01T14:24:54.968Z,29.40
2019-05-01T14:27:22.244Z,28.70
2019-05-01T14:29:49.527Z,29.00
2019-05-01T14:32:17.073Z,30.90
2019-05-01T14:34:44.311Z,29.10
2019-05-01T14:37:11.708Z,29.90
2019-05-01T14:39:38.983Z,31.30
2019-05-01T14:42:06.240Z,30.30
2019-05-01T14:44:37.079Z,30.00
2019-05-01T14:49:30.078Z,28.90
2019-05-01T14:51:57.359Z,29.10
2019-05-01T14:54:24.745Z,30.00
2019-05-01T14:56:52.001Z,29.70
2019-05-01T14:59:19.441Z,30.00
2019-05-01T15:01:47.345Z,31.10
2019-05-01T15:04:15.045Z,31.90
2019-05-01T15:06:42.320Z,32.20
2019-05-01T15:11:37.855Z,30.70
2019-05-01T15:14:36.849Z,30.00
2019-05-01T15:17:22.171Z,30.50
2019-05-01T15:19:54.840Z,30.50
2019-05-01T15:22:22.208Z,29.30
2019-05-01T15:24:49.497Z,29.80
2019-05-01T15:27:16.799Z,29.60
2019-05-01T15:29:44.036Z,27.70
2019-05-01T15:32:11.658Z,28.50
2019-05-01T15:34:38.928Z,29.70
2019-05-01T15:37:06.256Z,30.60
2019-05-01T15:39:47.971Z,29.70
2019-05-01T15:42:25.574Z,28.80
2019-05-01T15:44:52.826Z,29.40
2019-05-01T15:47:20.116Z,30.00
2019-05-01T15:49:47.444Z,30.30
2019-05-01T15:52:15.104Z,29.20
2019-05-01T15:54:42.236Z,30.40
2019-05-01T15:57:09.466Z,30.50
2019-05-01T15:59:36.783Z,29.80
2019-05-01T16:02:04.070Z,29.00
2019-05-01T16:04:31.366Z,30.00
2019-05-01T16:06:58.657Z,29.80
2019-05-01T16:09:26.188Z,28.60
2019-05-01T16:12:12.922Z,29.20
2019-05-01T16:14:43.638Z,29.50
2019-05-01T16:17:10.414Z,29.80
2019-05-01T16:19:37.936Z,29.80
2019-05-01T16:22:05.162Z,29.40
2019-05-01T16:24:32.295Z,30.00
2019-05-01T16:26:59.663Z,30.00
2019-05-01T16:29:26.928Z,32.10
2019-05-01T16:31:54.277Z,31.70
2019-05-01T16:34:21.598Z,30.70
2019-05-01T16:36:48.864Z,31.30
2019-05-01T16:39:50.870Z,31.90
2019-05-01T16:42:30.245Z,31.40
2019-05-01T16:44:57.528Z,30.30
2019-05-01T16:47:24.772Z,29.70
2019-05-01T16:49:52.085Z,31.10
2019-05-01T16:52:22.118Z,31.90
2019-05-01T16:54:58.986Z,31.50
2019-05-01T16:57:18.535Z,31.10
2019-05-01T16:59:45.960Z,31.70
2019-05-01T17:02:35.471Z,31.70
2019-05-01T17:05:24.450Z,31.50
2019-05-01T17:08:14.236Z,32.80
2019-05-01T17:10:44.272Z,30.80
2019-05-01T17:13:11.611Z,31.20
2019-05-01T17:15:42.651Z,31.20
2019-05-01T17:18:10.112Z,31.60
2019-05-01T17:20:37.452Z,31.40
2019-05-01T17:23:05.693Z,31.10
2019-05-01T17:25:33.128Z,31.40
2019-05-01T17:28:02.755Z,31.50
2019-05-01T17:30:59.203Z,31.70
2019-05-01T17:33:26.711Z,32.10
2019-05-01T17:35:54.039Z,31.90
2019-05-01T17:38:21.363Z,31.40
2019-05-01T17:40:52.168Z,31.80
2019-05-01T17:43:19.416Z,32.10
2019-05-01T17:45:46.712Z,32.10
2019-05-01T17:48:14.002Z,33.00
2019-05-01T17:50:41.294Z,33.50
2019-05-01T17:53:08.707Z,34.30
2019-05-01T17:55:35.859Z,34.10
2019-05-01T17:58:03.258Z,34.40
2019-05-01T18:01:05.059Z,36.10
2019-05-01T18:03:57.676Z,36.60
2019-05-01T18:06:27.548Z,37.30
2019-05-01T18:09:02.956Z,37.00
2019-05-01T18:11:24.130Z,37.60
2019-05-01T18:13:51.323Z,40.20
2019-05-01T18:16:18.616Z,42.00
2019-05-01T18:18:45.916Z,41.30
2019-05-01T18:21:13.175Z,41.90
2019-05-01T18:24:09.541Z,43.10
2019-05-01T18:26:54.151Z,44.40
2019-05-01T18:29:35.523Z,44.00
2019-05-01T18:32:02.961Z,44.70
2019-05-01T18:34:33.717Z,44.70
2019-05-01T18:37:10.333Z,45.60
2019-05-01T18:39:38.823Z,46.80
2019-05-01T18:42:08.919Z,48.50
2019-05-01T18:44:36.219Z,49.90
2019-05-01T18:47:03.812Z,46.30
2019-05-01T18:49:31.207Z,46.60
2019-05-01T18:51:58.779Z,46.90
2019-05-01T18:54:30.475Z,48.20
2019-05-01T18:56:55.585Z,48.40
2019-05-01T18:59:22.991Z,49.10
2019-05-01T19:01:50.371Z,50.20
2019-05-01T19:04:18.560Z,50.10
2019-05-01T19:06:46.968Z,51.80
2019-05-01T19:09:15.423Z,54.20
2019-05-01T19:11:42.858Z,56.10
2019-05-01T19:14:10.560Z,58.20
2019-05-01T19:16:40.095Z,58.60
2019-05-01T19:19:07.220Z,58.60
2019-05-01T19:21:35.007Z,58.30
2019-05-01T19:24:04.401Z,58.80
2019-05-01T19:26:32.013Z,60.10
2019-05-01T19:28:59.810Z,59.70
2019-05-01T19:31:27.225Z,61.60
2019-05-01T19:33:54.606Z,63.20
2019-05-01T19:36:21.949Z,63.50
2019-05-01T19:38:49.331Z,62.90
2019-05-01T19:41:16.764Z,63.30
2019-05-01T19:43:44.223Z,63.00
2019-05-01T19:46:11.632Z,62.60
2019-05-01T19:48:39.092Z,61.40
2019-05-01T19:51:06.584Z,62.40
2019-05-01T19:53:33.947Z,66.80
2019-05-01T19:56:01.233Z,68.30
2019-05-01T19:58:28.720Z,65.90
2019-05-01T20:00:59.396Z,66.80
2019-05-01T20:03:30.560Z,66.90
2019-05-01T20:05:59.520Z,67.40
2019-05-01T20:08:25.749Z,66.60
2019-05-01T20:10:53.435Z,66.80
2019-05-01T20:13:20.806Z,68.50
2019-05-01T20:15:48.117Z,68.40
2019-05-01T20:18:15.405Z,68.80
2019-05-01T20:20:42.801Z,69.70
2019-05-01T20:23:10.136Z,70.00
2019-05-01T20:25:37.577Z,70.30
2019-05-01T20:28:04.862Z,70.90
2019-05-01T20:30:32.172Z,70.40
2019-05-01T20:33:02.176Z,70.50
2019-05-01T20:35:30.210Z,70.50
2019-05-01T20:37:57.863Z,68.00
2019-05-01T20:40:25.225Z,67.60
2019-05-01T20:42:52.801Z,68.30
2019-05-01T20:45:21.150Z,69.50
2019-05-01T20:47:48.565Z,69.70
2019-05-01T20:50:16.016Z,69.80
2019-05-01T20:52:43.452Z,65.80
2019-05-01T20:55:11.179Z,65.80
2019-05-01T20:57:40.894Z,66.60
2019-05-01T21:00:11.249Z,66.50
2019-05-01T21:02:38.982Z,69.50
2019-05-01T21:05:29.578Z,69.90
2019-05-01T21:08:05.066Z,69.90
2019-05-01T21:10:50.300Z,70.70
2019-05-01T21:13:10.680Z,72.50
2019-05-01T21:15:37.975Z,72.70
2019-05-01T21:18:05.271Z,74.10
2019-05-01T21:20:33.885Z,75.70
2019-05-01T21:23:05.724Z,76.50
2019-05-01T21:25:30.480Z,76.80
2019-05-01T21:27:57.804Z,78.30
2019-05-01T21:30:25.080Z,79.40
2019-05-01T21:32:54.112Z,80.30
2019-05-01T21:35:21.521Z,80.90
2019-05-01T21:37:48.888Z,81.10
2019-05-01T21:40:16.194Z,81.20
2019-05-01T21:42:47.285Z,81.40
2019-05-01T21:45:12.860Z,79.80
2019-05-01T21:47:40.373Z,80.40
2019-05-01T21:50:07.641Z,79.20
2019-05-01T21:52:34.931Z,79.20
2019-05-01T21:55:02.219Z,78.40
2019-05-01T21:57:32.279Z,78.20
2019-05-01T21:59:58.718Z,79.10
2019-05-01T22:02:25.995Z,79.60
2019-05-01T22:04:53.276Z,79.70
2019-05-01T22:07:23.827Z,79.10
2019-05-01T22:09:50.430Z,79.20
2019-05-01T22:12:18.971Z,80.00
2019-05-01T22:14:53.184Z,80.70
2019-05-01T22:17:32.163Z,80.80
2019-05-01T22:20:00.253Z,80.90
2019-05-01T22:22:58.900Z,80.50
2019-05-01T22:25:30.665Z,80.70
2019-05-01T22:28:06.964Z,81.10
2019-05-01T22:30:42.181Z,81.60
2019-05-01T22:33:07.378Z,83.10
2019-05-01T22:35:40.793Z,82.50
2019-05-01T22:38:08.082Z,83.20
2019-05-01T22:40:45.480Z,82.70
2019-05-01T22:43:12.823Z,83.00
2019-05-01T22:45:40.196Z,79.90
2019-05-01T22:48:07.468Z,77.60
2019-05-01T22:50:34.740Z,77.30
2019-05-01T22:53:02.020Z,74.80
2019-05-01T22:55:29.280Z,74.00
2019-05-01T22:57:56.527Z,73.40
2019-05-01T23:00:38.380Z,73.40
2019-05-01T23:03:08.020Z,74.50
2019-05-01T23:05:35.539Z,77.00
2019-05-01T23:08:02.840Z,77.60
2019-05-01T23:10:31.076Z,78.50
2019-05-01T23:12:58.417Z,78.00
2019-05-01T23:15:27.212Z,78.10
2019-05-01T23:17:54.608Z,79.20
2019-05-01T23:20:22.488Z,79.10
2019-05-01T23:22:49.732Z,78.80
2019-05-01T23:25:16.989Z,79.90
2019-05-01T23:27:44.235Z,79.70
2019-05-01T23:30:14.913Z,79.10
2019-05-01T23:32:42.163Z,79.00
2019-05-01T23:35:09.476Z,79.60
2019-05-01T23:37:36.756Z,79.00
2019-05-01T23:40:05.404Z,80.10
2019-05-01T23:42:32.663Z,80.30
2019-05-01T23:45:00.084Z,81.00
2019-05-01T23:47:27.358Z,81.40
2019-05-01T23:49:54.798Z,80.60
2019-05-01T23:52:22.054Z,79.90
2019-05-01T23:54:49.880Z,79.70
2019-05-01T23:57:18.836Z,81.90
2019-05-01T23:59:46.490Z,83.20
